Latest Coastal Weather Observations for Arlington Reef

IDQ60701

Issued at 5:12 am EST Thursday 18 October 2018 (issued every 10 minutes, with the page automatically refreshed every 10 minutes)

About coastal observations | Map of coastal stations | Coastal observations for QLD | Marine services | Other Formats
Station Details ID: 200879 Name: ARLINGTON REEF Lat: -16.72 Lon: 146.11 Height: 0.0 m
Data from the previous 72 hours. | See also: Recent months at Arlington Reef
Date/Time
EST
Wind Sea
Height
m
Swell Vis
km
Cloud Weather Temp
°C
Press
hPa
Rain since
9am
mm
Dir  Spd
kts
Gust
kts
Height
m
Period
s
Dir
18/05:00am ESE 2 3 - - - - - - - - 1012.6 -
18/04:30am ESE 2 3 - - - - - - - - 1012.5 -
18/04:00am ESE 3 5 - - - - - - - - 1012.2 -
18/03:30am E 4 5 - - - - - - - - 1012.0 -
18/03:00am E 4 6 - - - - - - - - 1012.0 -
18/02:30am ENE 5 6 - - - - - - - - 1012.2 -
18/02:00am ENE 6 7 - - - - - - - - 1012.4 -
18/01:30am E 5 7 - - - - - - - - 1012.5 -
18/01:00am NE 4 5 - - - - - - - - 1012.8 -
18/12:30am NE 4 6 - - - - - - - - 1012.9 -
18/12:00am NE 5 7 - - - - - - - - 1013.1 -
 
Date/Time
EST
Wind Sea
Height
m
Swell Vis
km
Cloud Weather Temp
°C
Press
hPa
Rain since
9am
mm
Dir  Spd
kts
Gust
kts
Height
m
Period
s
Dir
17/11:30pm ENE 4 5 - - - - - - - - 1013.2 -
17/11:00pm ENE 4 5 - - - - - - - - 1013.5 -
17/10:30pm NE 3 5 - - - - - - - - 1013.5 -
17/10:00pm NE 4 5 - - - - - - - - 1013.4 -
17/09:30pm NE 5 7 - - - - - - - - 1013.4 -
17/09:00pm NE 4 6 - - - - - - - - 1013.2 -
17/08:30pm NE 5 6 - - - - - - - - 1012.7 -
17/08:00pm NE 5 7 - - - - - - - - 1012.4 -
17/07:30pm NE 6 7 - - - - - - - - 1012.3 -
17/07:00pm ENE 7 8 - - - - - - - - 1012.0 -
17/06:30pm NE 6 8 - - - - - - - - 1011.8 -
17/06:00pm ENE 6 8 - - - - - - - - 1011.6 -
17/05:30pm ENE 5 7 - - - - - - - - 1011.5 -
17/05:00pm ENE 6 8 - - - - - - - - 1011.3 -
17/04:30pm E 7 9 - - - - - - - - 1011.1 -
17/04:00pm E 7 8 - - - - - - - - 1011.2 -
17/03:30pm ENE 8 10 - - - - - - - - 1011.1 -
17/03:00pm ENE 7 9 - - - - - - - - 1011.5 -
17/02:30pm E 7 8 - - - - - - - - 1011.6 -
17/02:00pm ENE 6 9 - - - - - - - - 1011.9 -
17/01:30pm E 6 7 - - - - - - - - 1012.3 -
17/01:00pm E 6 7 - - - - - - - - 1012.8 -
17/12:30pm E 6 8 - - - - - - - - 1013.3 -
17/12:00pm E 5 7 - - - - - - - - 1013.7 -
17/11:30am E 5 6 - - - - - - - - 1014.0 -
17/11:00am E 6 7 - - - - - - - - 1014.1 -
17/10:30am ENE 5 7 - - - - - - - - 1014.3 -
17/10:00am ENE 5 6 - - - - - - - - 1014.5 -
17/09:30am E 4 6 - - - - - - - - 1014.5 -
17/09:00am E 5 7 - - - - - - - - 1014.3 -
17/08:30am E 4 6 - - - - - - - - 1014.3 -
17/08:00am E 4 5 - - - - - - - - 1013.8 -
17/07:30am E 5 6 - - - - - - - - 1013.7 -
17/07:00am ENE 5 6 - - - - - - - - 1013.4 -
17/06:30am E 6 7 - - - - - - - - 1013.1 -
17/06:00am E 7 8 - - - - - - - - 1012.7 -
17/05:30am E 6 8 - - - - - - - - 1012.6 -
17/05:00am E 6 7 - - - - - - - - 1012.4 -
17/04:30am ESE 5 7 - - - - - - - - 1012.1 -
17/04:00am SE 5 7 - - - - - - - - 1012.1 -
17/03:30am SSE 5 7 - - - - - - - - 1012.0 -
17/03:00am SE 4 5 - - - - - - - - 1012.0 -
17/02:30am ESE 4 5 - - - - - - - - 1012.0 -
17/02:00am SE 3 4 - - - - - - - - 1012.4 -
17/01:30am E 1 4 - - - - - - - - 1012.6 -
17/01:00am CALM 0 0 - - - - - - - - 1013.0 -
17/12:30am SE 2 3 - - - - - - - - 1013.5 -
17/12:00am SSW 1 3 - - - - - - - - 1013.9 -
 
Date/Time
EST
Wind Sea
Height
m
Swell Vis
km
Cloud Weather Temp
°C
Press
hPa
Rain since
9am
mm
Dir  Spd
kts
Gust
kts
Height
m
Period
s
Dir
16/11:30pm SSE 2 4 - - - - - - - - 1014.4 -
16/11:00pm SE 1 3 - - - - - - - - 1014.7 -
16/10:30pm SSE 1 2 - - - - - - - - 1015.1 -
16/10:00pm SE 3 4 - - - - - - - - 1015.3 -
16/09:30pm ESE 2 4 - - - - - - - - 1014.9 -
16/09:00pm ESE 6 8 - - - - - - - - 1014.6 -
16/08:30pm ESE 8 9 - - - - - - - - 1014.1 -
16/08:00pm ESE 8 10 - - - - - - - - 1013.6 -
16/07:30pm E 8 10 - - - - - - - - 1013.3 -
16/07:00pm E 8 9 - - - - - - - - 1013.0 -
16/06:30pm E 8 9 - - - - - - - - 1012.7 -
16/06:00pm E 9 10 - - - - - - - - 1012.0 -
16/05:30pm E 7 8 - - - - - - - - 1012.0 -
16/05:00pm ENE 6 8 - - - - - - - - 1012.0 -
16/04:30pm ENE 6 7 - - - - - - - - 1011.7 -
16/04:00pm E 6 8 - - - - - - - - 1011.5 -
16/03:30pm ESE 7 8 - - - - - - - - 1011.6 -
16/03:00pm ESE 8 10 - - - - - - - - 1011.6 -
16/02:30pm ESE 8 9 - - - - - - - - 1011.9 -
16/02:00pm ESE 7 8 - - - - - - - - 1012.5 -
16/01:30pm E 7 8 - - - - - - - - 1012.8 -
16/01:00pm E 6 8 - - - - - - - - 1013.3 -
16/12:30pm ESE 6 7 - - - - - - - - 1013.7 -
16/12:00pm ESE 5 7 - - - - - - - - 1014.4 -
16/11:30am ESE 5 6 - - - - - - - - 1014.8 -
16/11:00am ESE 4 6 - - - - - - - - 1015.0 -
16/10:30am E 4 5 - - - - - - - - 1015.3 -
16/10:00am E 4 5 - - - - - - - - 1015.6 -
16/09:30am ESE 3 4 - - - - - - - - 1015.6 -
16/09:00am ESE 2 3 - - - - - - - - 1015.3 -
16/08:30am CALM 0 1 - - - - - - - - 1015.4 -
16/08:00am SSE 2 4 - - - - - - - - 1015.5 -
16/07:30am SE 3 5 - - - - - - - - 1015.4 -
16/07:00am SE 5 5 - - - - - - - - 1015.1 -
16/06:30am SE 5 6 - - - - - - - - 1014.5 -
16/06:00am ESE 6 7 - - - - - - - - 1014.2 -
16/05:30am SE 5 6 - - - - - - - - 1013.9 -
16/05:00am E 6 7 - - - - - - - - 1013.3 -
16/04:30am ENE 7 7 - - - - - - - - 1012.9 -
16/04:00am E 7 8 - - - - - - - - 1012.7 -
16/03:30am E 7 8 - - - - - - - - 1012.7 -
16/03:00am E 5 6 - - - - - - - - 1013.0 -
16/02:30am E 6 7 - - - - - - - - 1013.4 -
16/02:00am E 5 7 - - - - - - - - 1013.5 -
16/01:30am E 7 8 - - - - - - - - 1013.7 -
16/01:00am E 8 9 - - - - - - - - 1014.0 -
16/12:30am E 7 9 - - - - - - - - 1014.2 -
16/12:00am ESE 7 8 - - - - - - - - 1014.5 -
 
Date/Time
EST
Wind Sea
Height
m
Swell Vis
km
Cloud Weather Temp
°C
Press
hPa
Rain since
9am
mm
Dir  Spd
kts
Gust
kts
Height
m
Period
s
Dir
15/11:30pm ESE 7 8 - - - - - - - - 1014.6 -
15/11:00pm ESE 6 8 - - - - - - - - 1014.7 -
15/10:30pm E 7 8 - - - - - - - - 1014.7 -
15/10:00pm ESE 7 8 - - - - - - - - 1014.4 -
15/09:30pm ESE 6 7 - - - - - - - - 1014.3 -
15/09:00pm ESE 7 8 - - - - - - - - 1014.1 -
15/08:30pm E 8 9 - - - - - - - - 1013.6 -
15/08:00pm E 8 9 - - - - - - - - 1013.6 -
15/07:30pm E 7 8 - - - - - - - - 1013.5 -
15/07:00pm E 8 9 - - - - - - - - 1013.3 -
15/06:30pm E 8 9 - - - - - - - - 1013.1 -
15/06:00pm ESE 7 8 - - - - - - - - 1012.9 -
15/05:30pm E 8 9 - - - - - - - - 1012.6 -
15/05:00pm E 8 9 - - - - - - - - 1012.3 -
15/04:30pm ESE 8 9 - - - - - - - - 1012.4 -
15/04:00pm E 8 10 - - - - - - - - 1012.4 -
15/03:30pm E 8 9 - - - - - - - - 1012.6 -
15/03:00pm E 7 8 - - - - - - - - 1012.9 -
15/02:30pm E 8 9 - - - - - - - - 1013.1 -
15/02:00pm E 7 8 - - - - - - - - 1013.5 -
15/01:30pm ENE 7 8 - - - - - - - - 1013.7 -
15/01:00pm E 6 7 - - - - - - - - 1014.1 -
15/12:30pm E 6 7 - - - - - - - - 1014.7 -
15/12:00pm E 6 7 - - - - - - - - 1015.2 -
15/11:30am E 6 7 - - - - - - - - 1015.5 -
15/11:00am E 7 8 - - - - - - - - 1015.5 -
15/10:30am E 7 8 - - - - - - - - 1016.0 -
15/10:00am E 7 8 - - - - - - - - 1016.1 -
15/09:30am E 8 9 - - - - - - - - 1016.2 -
15/09:00am E 7 8 - - - - - - - - 1016.1 -
15/08:30am E 7 8 - - - - - - - - 1016.1 -
15/08:00am E 7 8 - - - - - - - - 1015.8 -
15/07:30am E 8 9 - - - - - - - - 1015.4 -
15/07:00am E 8 9 - - - - - - - - 1015.0 -
15/06:30am E 8 9 - - - - - - - - 1014.7 -
15/06:00am E 10 11 - - - - - - - - 1014.3 -
15/05:30am E 9 10 - - - - - - - - 1014.2 -

Other Formats:

Comma delimited format used in spreadsheet applications
http://www.bom.gov.au/fwo/IDQ60701/IDQ60701.94284.axf

JavaScript Object Notation format (JSON) in row-major order
http://www.bom.gov.au/fwo/IDQ60701/IDQ60701.94284.json